Arnold, Illinois
Current Conditions -  °F | °C
As of 2:55 AM on Wednesday 26 Nov 2014 (Local Time) from KIJX Reporting Station
Clear Clear  
Wind Chill: 22°   Ceiling: Unl
Heat Index: 28°   Visibility: 10mi
Dew Point: 25°   Wind: 6mph
Humidity: 88%   Direction: 140°SE
Pressure: 30.1"   Gusts: NA
Location:  39.7413°N, 90.2138°W
Report Text: KIJX 260855Z AUTO 14005KT 10SM CLR M02/M04 A3010 RMK AO2 T10201038
Loading
Personal Weather Stations






























Interactive Weather Map New forecast layout! Learn more

10-Day Weather Forecast

Advertisements
Track Severe Weather on mobile